Cpo Sweden — 2AJQ3 — position and weather

sailwx.info

Track history (hours):
 
Tides and Currents Weather Stations Pressure Air Temp Water Temp Dewpoint Dewpoint Depression Visibility Wind Speed Wind Dir Waves Ship Positions

Cpo Sweden

Last reported at 2017-Nov-17 09:25 UTC. Time now 2017-Nov-18 12:21 UTC.
Position N 60°02' E 029°03'.

Length 185 m; draft 6.8 m.

Type: Ship. MMSI: 235060253.

Date/timePositionNaut miles runAvg speedWind from/ knotsBaromVisibWave heightAir tempDewpointWater temp
2017-Nov-17 09:25N 60°02' E 029°03'614.5
2017-Nov-17 09:00N 60°02' E 028°51'714.3
2017-Nov-17 08:31N 60°02' E 028°37'713.6
2017-Nov-17 08:00N 60°04' E 028°24'713.4
2017-Nov-17 07:31N 60°08' E 028°13'714.0
2017-Nov-17 07:01N 60°09' E 027°59'713.5
2017-Nov-17 06:31N 60°10' E 027°46'714.3
2017-Nov-17 06:01N 60°07' E 027°33'714.3
2017-Nov-17 05:30N 60°03' E 027°21'714.2
2017-Nov-17 05:01N 59°59' E 027°09'713.1
2017-Nov-17 04:30N 59°58' E 026°56'714.0
2017-Nov-17 04:00N 59°60' E 026°42'714.1
2017-Nov-17 03:31N 59°58' E 026°28'714.5
2017-Nov-17 03:00N 59°56' E 026°14'2314.4
2017-Nov-17 01:25N 59°51' E 025°30'614.6
2017-Nov-17 01:00N 59°50' E 025°18'714.5
2017-Nov-17 00:30N 59°48' E 025°04'714.4
2017-Nov-17 00:00N 59°46' E 024°50'714.5
2017-Nov-16 23:31N 59°44' E 024°36'713.6
2017-Nov-16 23:00N 59°40' E 024°26'612.9
2017-Nov-16 22:31N 59°34' E 024°23'511.0
2017-Nov-16 22:01N 59°30' E 024°30'0 0.5
2017-Nov-16 21:29N 59°29' E 024°31'0 0.0
2017-Nov-16 20:59N 59°29' E 024°31'0 0.0
2017-Nov-16 20:29N 59°29' E 024°31'0 0.0
2017-Nov-16 19:59N 59°29' E 024°31'0 0.0
2017-Nov-16 19:29N 59°29' E 024°31'0 0.0
2017-Nov-16 18:59N 59°29' E 024°31'0 0.1
2017-Nov-16 18:29N 59°29' E 024°31'0 0.1
2017-Nov-16 17:59N 59°29' E 024°31'3 5.5
2017-Nov-16 17:30N 59°30' E 024°26'714.2
2017-Nov-16 17:00N 59°29' E 024°12'2014.2
2017-Nov-16 15:38N 59°27' E 023°33'414.4
2017-Nov-16 15:20N 59°27' E 023°25'31013.1
2017-Nov-15 15:43N 55°46' E 016°38'414.1
2017-Nov-15 15:25N 55°45' E 016°31'614.0
2017-Nov-15 15:00N 55°44' E 016°21'713.9
2017-Nov-15 14:30N 55°42' E 016°09'713.9
2017-Nov-15 14:00N 55°41' E 015°57'714.0
2017-Nov-15 13:30N 55°39' E 015°45'714.0
2017-Nov-15 13:00N 55°37' E 015°33'714.1
2017-Nov-15 12:30N 55°35' E 015°21'714.2
2017-Nov-15 12:01N 55°32' E 015°10'714.1
2017-Nov-15 11:30N 55°28' E 014°59'714.0
2017-Nov-15 11:00N 55°25' E 014°47'713.9
2017-Nov-15 10:30N 55°22' E 014°37'713.7
2017-Nov-15 10:00N 55°17' E 014°29'713.8
2017-Nov-15 09:31N 55°12' E 014°21'713.9
2017-Nov-15 08:59N 55°10' E 014°08'714.1
2017-Nov-15 08:28N 55°10' E 013°56'1514.3
2017-Nov-15 07:24N 55°13' E 013°29'614.3
2017-Nov-15 07:00N 55°13' E 013°19'814.2
2017-Nov-15 06:26N 55°14' E 013°05'614.3
2017-Nov-15 06:01N 55°15' E 012°55'713.9
2017-Nov-15 05:30N 55°17' E 012°43'611.1
2017-Nov-15 05:00N 55°22' E 012°39'713.7
2017-Nov-15 04:30N 55°29' E 012°41'5 9.9
2017-Nov-15 04:00N 55°33' E 012°42'4 7.8
2017-Nov-15 03:30N 55°37' E 012°42'612.1
2017-Nov-15 03:00N 55°43' E 012°41'713.3
2017-Nov-15 02:30N 55°50' E 012°42'713.0
2017-Nov-15 02:00N 55°56' E 012°39'713.2
2017-Nov-15 01:31N 56°03' E 012°39'713.3
2017-Nov-15 01:00N 56°07' E 012°30'611.2
2017-Nov-15 00:30N 56°11' E 012°22'7112.2
2017-Nov-14 18:39N 57°17' E 011°32'214.4
2017-Nov-14 18:30N 57°19' E 011°31'714.5
2017-Nov-14 18:00N 57°26' E 011°27'714.3
2017-Nov-14 17:30N 57°32' E 011°22'714.2
2017-Nov-14 17:00N 57°39' E 011°18'714.5
2017-Nov-14 16:30N 57°46' E 011°14'714.4
2017-Nov-14 16:01N 57°53' E 011°10'714.2
2017-Nov-14 15:30N 57°59' E 011°06'713.9
2017-Nov-14 14:58N 58°07' E 011°01'613.8
2017-Nov-14 14:30N 58°13' E 010°58'713.3
2017-Nov-14 14:00N 58°19' E 010°54'1212.8
2017-Nov-14 13:04N 58°30' E 010°47'112.9
2017-Nov-14 13:00N 58°31' E 010°47'612.9
2017-Nov-14 12:30N 58°37' E 010°43'612.8
2017-Nov-14 12:00N 58°43' E 010°39'612.6
2017-Nov-14 11:30N 58°49' E 010°35'713.2
2017-Nov-14 11:00N 58°56' E 010°36'713.2
2017-Nov-14 10:30N 59°03' E 010°35'510.5
2017-Nov-14 10:00N 59°08' E 010°36'713.3
2017-Nov-14 09:30N 59°14' E 010°37'611.8
2017-Nov-14 09:00N 59°20' E 010°31'0 0.6
2017-Nov-14 08:30N 59°20' E 010°31'0 0.0
2017-Nov-14 08:00N 59°20' E 010°31'0 0.0
2017-Nov-14 07:30N 59°20' E 010°31'0 0.0
2017-Nov-14 07:00N 59°20' E 010°31'0 0.0
2017-Nov-14 06:30N 59°20' E 010°31'0 0.0
2017-Nov-14 06:00N 59°20' E 010°31'0 0.0
2017-Nov-14 05:30N 59°20' E 010°31'0 0.0
2017-Nov-14 05:00N 59°20' E 010°31'0 0.0
2017-Nov-14 04:30N 59°20' E 010°31'0 0.0
2017-Nov-14 04:00N 59°20' E 010°31'0 0.0
2017-Nov-14 03:30N 59°20' E 010°31'0 0.0
2017-Nov-14 03:00N 59°20' E 010°31'0 0.0
2017-Nov-14 02:30N 59°20' E 010°31'0 0.0
2017-Nov-14 02:00N 59°20' E 010°31'0 0.0
2017-Nov-14 01:30N 59°20' E 010°31'0 0.0
2017-Nov-14 01:00N 59°20' E 010°31'0 0.0
2017-Nov-14 00:30N 59°20' E 010°31'0 0.0
2017-Nov-14 00:00N 59°20' E 010°31'0 0.0
2017-Nov-13 23:30N 59°20' E 010°31'0 0.0
2017-Nov-13 23:00N 59°20' E 010°31'0 0.0
2017-Nov-13 22:30N 59°20' E 010°31'0 0.0
2017-Nov-13 22:00N 59°20' E 010°31'1 0.0
2017-Nov-13 02:00N 59°20' E 010°31'0 0.0
2017-Nov-13 01:30N 59°20' E 010°31'0 0.0
2017-Nov-13 01:00N 59°20' E 010°31'0 0.0
2017-Nov-13 00:30N 59°20' E 010°31'0 0.0
2017-Nov-13 00:00N 59°20' E 010°31'0 0.0
2017-Nov-12 23:30N 59°20' E 010°31'0 0.0
2017-Nov-12 23:00N 59°20' E 010°31'0 0.0
2017-Nov-12 22:30N 59°20' E 010°31'0 0.0
2017-Nov-12 22:00N 59°20' E 010°31'0 0.0
2017-Nov-12 21:30N 59°20' E 010°31'0 0.0
2017-Nov-12 21:00N 59°20' E 010°31'0 0.0
2017-Nov-12 20:30N 59°20' E 010°31'0 0.0
2017-Nov-12 20:00N 59°20' E 010°31'0 0.0
2017-Nov-12 19:30N 59°20' E 010°31'0 0.0
2017-Nov-12 19:00N 59°20' E 010°31'0 0.0
2017-Nov-12 18:30N 59°20' E 010°31'0 0.0
2017-Nov-12 18:00N 59°20' E 010°31'0 0.0
2017-Nov-12 17:30N 59°20' E 010°31'0 0.0
2017-Nov-12 17:00N 59°20' E 010°31'0 0.0
2017-Nov-12 16:30N 59°20' E 010°31'0 0.0
2017-Nov-12 16:00N 59°20' E 010°31'0 0.0
2017-Nov-12 15:30N 59°20' E 010°31'0 0.0
2017-Nov-12 15:00N 59°20' E 010°31'0 0.0
2017-Nov-12 14:30N 59°20' E 010°31'0 0.0
2017-Nov-12 14:00N 59°20' E 010°31'0 0.0
2017-Nov-12 13:30N 59°20' E 010°31'0 0.0
2017-Nov-12 13:00N 59°20' E 010°31'0 0.0
2017-Nov-12 12:30N 59°20' E 010°31'0 0.0
2017-Nov-12 12:00N 59°20' E 010°31'0 0.0
2017-Nov-12 11:30N 59°20' E 010°31'0 0.0
2017-Nov-12 11:00N 59°20' E 010°31'0 0.0
2017-Nov-12 10:30N 59°20' E 010°31'0 0.0
2017-Nov-12 10:00N 59°20' E 010°31'0 0.0
2017-Nov-12 09:30N 59°20' E 010°31'0 0.0
2017-Nov-12 09:00N 59°20' E 010°31'0 0.0
2017-Nov-12 08:30N 59°20' E 010°31'0 0.0
2017-Nov-12 08:00N 59°20' E 010°31'0 0.0
2017-Nov-12 07:30N 59°20' E 010°31'0 0.0
2017-Nov-12 07:00N 59°20' E 010°31'0 0.0
2017-Nov-12 06:30N 59°20' E 010°31'0 0.0
2017-Nov-12 06:00N 59°20' E 010°31'0 0.0
2017-Nov-12 05:30N 59°20' E 010°31'0 0.0
2017-Nov-12 05:00N 59°20' E 010°31'0 0.0
2017-Nov-12 04:30N 59°20' E 010°31'0 0.0
2017-Nov-12 04:00N 59°20' E 010°31'0 0.0
2017-Nov-12 03:30N 59°20' E 010°31'0 0.0
2017-Nov-12 03:00N 59°20' E 010°31'0 0.0
2017-Nov-12 02:30N 59°20' E 010°31'0 0.0
2017-Nov-12 02:00N 59°20' E 010°31'0 0.0
2017-Nov-12 01:30N 59°20' E 010°31'0 0.0
2017-Nov-12 01:00N 59°20' E 010°31'0 0.0
2017-Nov-12 00:30N 59°20' E 010°31'0 0.0
2017-Nov-12 00:00N 59°20' E 010°31'0 0.0
2017-Nov-11 23:30N 59°20' E 010°31'0 0.0
2017-Nov-11 23:00N 59°20' E 010°31'0 0.0
2017-Nov-11 22:30N 59°20' E 010°31'0 0.0
2017-Nov-11 22:00N 59°20' E 010°31'0 0.0
2017-Nov-11 21:30N 59°20' E 010°31'0 0.0
2017-Nov-11 21:00N 59°20' E 010°31'0 0.0
2017-Nov-11 20:30N 59°20' E 010°31'0 0.0
2017-Nov-11 20:00N 59°20' E 010°31'0 0.0
2017-Nov-11 19:30N 59°20' E 010°31'0 0.0
2017-Nov-11 19:00N 59°20' E 010°31'0 0.0
2017-Nov-11 18:30N 59°20' E 010°31'0 0.0
2017-Nov-11 18:00N 59°20' E 010°31'0 0.0
2017-Nov-11 17:30N 59°20' E 010°31'0 0.0
2017-Nov-11 17:00N 59°20' E 010°31'0 0.0
2017-Nov-11 16:30N 59°20' E 010°31'0 0.1
2017-Nov-11 16:00N 59°20' E 010°31'0 0.0
2017-Nov-11 15:30N 59°20' E 010°31'0 0.0
2017-Nov-11 15:00N 59°20' E 010°31'0 0.0
2017-Nov-11 14:30N 59°20' E 010°31'0 0.0
2017-Nov-11 14:00N 59°20' E 010°31'0 0.0
2017-Nov-11 13:30N 59°20' E 010°31'0 0.0
2017-Nov-11 13:00N 59°20' E 010°31'0 0.0
2017-Nov-11 12:30N 59°20' E 010°31'0 0.0
2017-Nov-11 12:00N 59°20' E 010°31'0 0.0
2017-Nov-11 11:30N 59°20' E 010°31'0 0.0
2017-Nov-11 11:00N 59°20' E 010°31'0 0.0
2017-Nov-11 10:30N 59°20' E 010°31'0 0.0
2017-Nov-11 10:00N 59°20' E 010°31'0 0.0
2017-Nov-11 09:30N 59°20' E 010°31'0 0.0
2017-Nov-11 09:00N 59°20' E 010°31'0 0.0
2017-Nov-11 08:30N 59°20' E 010°31'0 0.0
2017-Nov-11 08:00N 59°20' E 010°31'0 0.0
2017-Nov-11 07:30N 59°20' E 010°31'0 0.0
2017-Nov-11 07:00N 59°20' E 010°31'0 0.1
2017-Nov-11 06:30N 59°20' E 010°31'0 0.1
2017-Nov-11 06:00N 59°20' E 010°31'0 0.0
2017-Nov-11 05:30N 59°20' E 010°31'0 0.0
2017-Nov-11 05:00N 59°20' E 010°31'0 0.0
2017-Nov-11 04:30N 59°20' E 010°31'0 0.0
2017-Nov-11 04:00N 59°20' E 010°31'0 0.0
2017-Nov-11 03:30N 59°20' E 010°31'0 0.0
2017-Nov-11 03:00N 59°20' E 010°31'0 0.0
2017-Nov-11 02:30N 59°20' E 010°31'0 0.0
2017-Nov-11 02:00N 59°20' E 010°31'0 0.0
2017-Nov-11 01:30N 59°20' E 010°31'0 0.0
2017-Nov-11 01:00N 59°20' E 010°31'0 0.0
2017-Nov-11 00:30N 59°20' E 010°31'0 0.0
2017-Nov-11 00:00N 59°20' E 010°31'0 0.0
2017-Nov-10 23:30N 59°20' E 010°31'0 0.0
2017-Nov-10 23:00N 59°20' E 010°31'0 0.0
2017-Nov-10 22:30N 59°20' E 010°31'0 0.0
2017-Nov-10 22:00N 59°20' E 010°31'0 0.0
2017-Nov-10 21:30N 59°20' E 010°31'0 0.0
2017-Nov-10 21:00N 59°20' E 010°31'0 0.0
2017-Nov-10 20:30N 59°20' E 010°31'0 0.0
2017-Nov-10 20:00N 59°20' E 010°31'0 0.0
2017-Nov-10 19:30N 59°20' E 010°31'0 0.0
2017-Nov-10 19:00N 59°20' E 010°31'0 0.0
2017-Nov-10 18:30N 59°20' E 010°31'0 0.0
2017-Nov-10 18:00N 59°20' E 010°31'0 0.0
2017-Nov-10 17:30N 59°20' E 010°31'0 0.0
2017-Nov-10 17:00N 59°20' E 010°31'0 0.0
2017-Nov-10 16:30N 59°20' E 010°31'0 0.0
2017-Nov-10 16:00N 59°20' E 010°31'0 0.0
2017-Nov-10 15:30N 59°20' E 010°31'0 0.0
2017-Nov-10 15:00N 59°20' E 010°31'0 0.0
2017-Nov-10 14:30N 59°20' E 010°31'0 0.0
2017-Nov-10 14:00N 59°20' E 010°31'0 0.0
2017-Nov-10 13:30N 59°20' E 010°31'0 0.0
2017-Nov-10 13:00N 59°20' E 010°31'0 0.0
2017-Nov-10 12:30N 59°20' E 010°31'0 0.0
2017-Nov-10 12:00N 59°20' E 010°31'0 0.0
2017-Nov-10 11:30N 59°20' E 010°31'0 0.0
2017-Nov-10 11:00N 59°20' E 010°31'0 0.0
2017-Nov-10 10:30N 59°20' E 010°31'0 0.0
2017-Nov-10 10:00N 59°20' E 010°31'0 0.0
2017-Nov-10 09:30N 59°20' E 010°31'0 0.0
2017-Nov-10 09:00N 59°20' E 010°31'0 0.0
2017-Nov-10 08:30N 59°20' E 010°31'0 0.0
2017-Nov-10 08:00N 59°20' E 010°31'0 0.0
2017-Nov-10 07:30N 59°20' E 010°31'0 0.1
2017-Nov-10 07:00N 59°20' E 010°31'0 0.1
2017-Nov-10 06:30N 59°20' E 010°31'0 0.0
2017-Nov-10 06:00N 59°20' E 010°31'0 0.1
2017-Nov-10 05:30N 59°20' E 010°31'0 0.0
2017-Nov-10 05:00N 59°20' E 010°31'0 0.0
2017-Nov-10 04:30N 59°20' E 010°31'0 0.0
2017-Nov-10 04:00N 59°20' E 010°31'0 0.0
2017-Nov-10 03:30N 59°20' E 010°31'0 0.0
2017-Nov-10 03:00N 59°20' E 010°31'0 0.0
2017-Nov-10 02:30N 59°20' E 010°31'0 0.1
2017-Nov-10 02:00N 59°20' E 010°31'0 0.0
2017-Nov-10 01:30N 59°20' E 010°31'0 0.0
2017-Nov-10 01:00N 59°20' E 010°31'0 0.0
2017-Nov-10 00:30N 59°20' E 010°31'0 0.0
2017-Nov-10 00:00N 59°20' E 010°31'0 0.0
2017-Nov-09 23:30N 59°20' E 010°31'0 0.1
2017-Nov-09 23:00N 59°20' E 010°31'0 0.0
2017-Nov-09 22:30N 59°20' E 010°31'0 0.0
2017-Nov-09 22:00N 59°20' E 010°31'0 0.0
2017-Nov-09 21:30N 59°20' E 010°31'0 0.0
2017-Nov-09 21:00N 59°20' E 010°31'0 0.0
2017-Nov-09 20:30N 59°20' E 010°31'0 0.0
2017-Nov-09 20:00N 59°20' E 010°31'0 0.0
2017-Nov-09 19:30N 59°20' E 010°31'0 0.0
2017-Nov-09 19:00N 59°20' E 010°31'0 0.0
2017-Nov-09 18:30N 59°20' E 010°31'0 0.1
2017-Nov-09 18:00N 59°20' E 010°31'0 0.0
2017-Nov-09 17:30N 59°20' E 010°31'0 0.0
2017-Nov-09 17:00N 59°20' E 010°31'0 0.0
2017-Nov-09 16:30N 59°20' E 010°31'0 0.0
2017-Nov-09 16:00N 59°20' E 010°31'0 0.0
2017-Nov-09 15:30N 59°20' E 010°31'0 0.0
2017-Nov-09 15:00N 59°20' E 010°31'0 0.0
2017-Nov-09 14:30N 59°20' E 010°31'0 0.0
2017-Nov-09 14:00N 59°20' E 010°31'0 0.0
2017-Nov-09 13:30N 59°20' E 010°31'0 0.0
2017-Nov-09 13:00N 59°20' E 010°31'0 0.0
2017-Nov-09 12:30N 59°20' E 010°31'0 0.0
2017-Nov-09 12:00N 59°20' E 010°31'0 0.1
2017-Nov-09 11:30N 59°20' E 010°31'0 0.0
2017-Nov-09 11:00N 59°20' E 010°31'0 0.1
2017-Nov-09 10:30N 59°20' E 010°31'0 0.0
2017-Nov-09 10:00N 59°20' E 010°31'0 0.0
2017-Nov-09 09:30N 59°20' E 010°31'0 0.0
2017-Nov-09 09:00N 59°20' E 010°31'0 0.0
2017-Nov-09 08:30N 59°20' E 010°31'0 0.0
2017-Nov-09 08:00N 59°20' E 010°31'0 0.0
2017-Nov-09 07:30N 59°20' E 010°31'0 0.0
2017-Nov-09 07:00N 59°20' E 010°31'0 0.0
2017-Nov-09 06:30N 59°20' E 010°31'0 0.0
2017-Nov-09 06:00N 59°20' E 010°31'0 0.0
2017-Nov-09 05:30N 59°20' E 010°31'0 0.0
2017-Nov-09 05:00N 59°20' E 010°31'0 0.0
2017-Nov-09 04:30N 59°20' E 010°31'0 0.0
2017-Nov-09 04:00N 59°20' E 010°31'0 0.0
2017-Nov-09 03:30N 59°20' E 010°31'0 0.0
2017-Nov-09 03:00N 59°20' E 010°31'0 0.0
2017-Nov-09 02:30N 59°20' E 010°31'0 0.0
2017-Nov-09 02:00N 59°20' E 010°31'0 0.0
2017-Nov-09 01:30N 59°20' E 010°31'0 0.0
2017-Nov-09 01:00N 59°20' E 010°31'0 0.0
2017-Nov-09 00:30N 59°20' E 010°31'0 0.0
2017-Nov-09 00:00N 59°20' E 010°31'0 0.0
2017-Nov-08 23:30N 59°20' E 010°31'0 0.0
2017-Nov-08 23:00N 59°20' E 010°31'0 0.0
2017-Nov-08 22:30N 59°20' E 010°31'0 0.0
2017-Nov-08 22:00N 59°20' E 010°31'0 0.0
2017-Nov-08 21:30N 59°20' E 010°31'0 0.1
2017-Nov-08 21:00N 59°20' E 010°31'0 0.0
2017-Nov-08 20:30N 59°20' E 010°31'0 0.0
2017-Nov-08 20:00N 59°20' E 010°31'0 0.0
2017-Nov-08 19:30N 59°20' E 010°31'0 0.0
2017-Nov-08 19:00N 59°20' E 010°31'0 0.0
2017-Nov-08 18:30N 59°20' E 010°31'0 0.0
2017-Nov-08 18:00N 59°20' E 010°31'0 0.0
2017-Nov-08 17:30N 59°20' E 010°31'0 0.0
2017-Nov-08 17:00N 59°20' E 010°31'0 0.0
2017-Nov-08 16:30N 59°20' E 010°31'0 0.0
2017-Nov-08 16:00N 59°20' E 010°31'0 0.0
2017-Nov-08 15:30N 59°20' E 010°31'0 0.0
2017-Nov-08 15:00N 59°20' E 010°31'0 0.0
2017-Nov-08 14:30N 59°20' E 010°31'0 0.0
2017-Nov-08 14:00N 59°20' E 010°31'0 0.0
2017-Nov-08 13:30N 59°20' E 010°31'0 0.0
2017-Nov-08 13:00N 59°20' E 010°31'0 0.1
2017-Nov-08 12:30N 59°20' E 010°31'0 0.0
2017-Nov-08 12:00N 59°20' E 010°31'0 0.0
2017-Nov-08 11:30N 59°20' E 010°31'0 0.0
2017-Nov-08 11:00N 59°20' E 010°31'0 0.0
2017-Nov-08 10:30N 59°20' E 010°31'0 0.0
2017-Nov-08 10:00N 59°20' E 010°31'0 0.0
2017-Nov-08 09:30N 59°20' E 010°31'0 0.0
2017-Nov-08 09:00N 59°20' E 010°31'0 0.0
2017-Nov-08 08:30N 59°20' E 010°31'0 0.0
2017-Nov-08 08:00N 59°20' E 010°31'0 0.0
2017-Nov-08 07:30N 59°20' E 010°31'0 0.0
2017-Nov-08 07:00N 59°20' E 010°31'0 0.0
2017-Nov-08 06:30N 59°20' E 010°31'0 0.0
2017-Nov-08 06:00N 59°20' E 010°31'0 0.0
2017-Nov-08 05:30N 59°20' E 010°31'0 0.1
2017-Nov-08 05:00N 59°20' E 010°31'0 0.1
2017-Nov-08 04:30N 59°20' E 010°31'0 0.0
2017-Nov-08 04:00N 59°20' E 010°31'0 0.0
2017-Nov-08 03:30N 59°20' E 010°31'0 0.0
2017-Nov-08 03:00N 59°20' E 010°31'0 0.0
2017-Nov-08 02:30N 59°20' E 010°31'0 0.0
2017-Nov-08 02:00N 59°20' E 010°31'0 0.0
2017-Nov-08 01:30N 59°20' E 010°31'0 0.0
2017-Nov-08 01:00N 59°20' E 010°31'0 0.0
2017-Nov-08 00:30N 59°20' E 010°31'0 0.0
2017-Nov-08 00:00N 59°20' E 010°31'0 0.0
2017-Nov-07 23:30N 59°20' E 010°31'0 0.0
2017-Nov-07 23:00N 59°20' E 010°31'0 0.0
2017-Nov-07 22:30N 59°20' E 010°31'0 0.0
2017-Nov-07 22:00N 59°20' E 010°31'0 0.0
2017-Nov-07 21:30N 59°20' E 010°31'0 0.1
2017-Nov-07 21:00N 59°20' E 010°31'0 0.1
2017-Nov-07 20:30N 59°20' E 010°31'0 0.1
2017-Nov-07 20:00N 59°20' E 010°31'0 0.0
2017-Nov-07 19:30N 59°20' E 010°31'0 0.0
2017-Nov-07 19:00N 59°20' E 010°31'0 0.1
2017-Nov-07 18:30N 59°20' E 010°31'0 0.1
2017-Nov-07 18:00N 59°20' E 010°31'0 0.0
2017-Nov-07 17:30N 59°20' E 010°31'0 0.0
2017-Nov-07 17:00N 59°20' E 010°31'0 0.1
2017-Nov-07 16:30N 59°20' E 010°31'0 0.1
2017-Nov-07 16:00N 59°20' E 010°31'0 0.0
2017-Nov-07 15:30N 59°20' E 010°31'0 0.0
2017-Nov-07 15:00N 59°20' E 010°31'0 0.0
2017-Nov-07 14:30N 59°20' E 010°31'0 0.0
2017-Nov-07 14:00N 59°20' E 010°31'0 0.0
2017-Nov-07 13:30N 59°20' E 010°31'0 0.0
2017-Nov-07 13:00N 59°20' E 010°31'0 0.0
2017-Nov-07 12:30N 59°20' E 010°31'0 0.0
2017-Nov-07 12:00N 59°20' E 010°31'0 0.0
2017-Nov-07 11:30N 59°20' E 010°31'0 0.0
2017-Nov-07 11:00N 59°20' E 010°31'0 0.0
2017-Nov-07 10:30N 59°20' E 010°31'0 0.1
2017-Nov-07 10:00N 59°20' E 010°31'0 0.0
2017-Nov-07 09:30N 59°20' E 010°31'  
Track history (hours):
 
Tides and Currents Weather Stations Pressure Air Temp Water Temp Dewpoint Dewpoint Depression Visibility Wind Speed Wind Dir Waves Ship Positions

Cpo Sweden

Last reported at 2017-Nov-17 09:25 UTC. Time now 2017-Nov-18 12:21 UTC.
Position N 60°02' E 029°03'.

Length 185 m; draft 6.8 m.

Type: Ship. MMSI: 235060253.

Date/timePositionNaut miles runAvg speedWind from/ knotsBaromVisibWave heightAir tempDewpointWater temp
2017-Nov-17 09:25N 60°02' E 029°03'614.5
2017-Nov-17 09:00N 60°02' E 028°51'714.3
2017-Nov-17 08:31N 60°02' E 028°37'713.6
2017-Nov-17 08:00N 60°04' E 028°24'713.4
2017-Nov-17 07:31N 60°08' E 028°13'714.0
2017-Nov-17 07:01N 60°09' E 027°59'713.5
2017-Nov-17 06:31N 60°10' E 027°46'714.3
2017-Nov-17 06:01N 60°07' E 027°33'714.3
2017-Nov-17 05:30N 60°03' E 027°21'714.2
2017-Nov-17 05:01N 59°59' E 027°09'713.1
2017-Nov-17 04:30N 59°58' E 026°56'714.0
2017-Nov-17 04:00N 59°60' E 026°42'714.1
2017-Nov-17 03:31N 59°58' E 026°28'714.5
2017-Nov-17 03:00N 59°56' E 026°14'2314.4
2017-Nov-17 01:25N 59°51' E 025°30'614.6
2017-Nov-17 01:00N 59°50' E 025°18'714.5
2017-Nov-17 00:30N 59°48' E 025°04'714.4
2017-Nov-17 00:00N 59°46' E 024°50'714.5
2017-Nov-16 23:31N 59°44' E 024°36'713.6
2017-Nov-16 23:00N 59°40' E 024°26'612.9
2017-Nov-16 22:31N 59°34' E 024°23'511.0
2017-Nov-16 22:01N 59°30' E 024°30'0 0.5
2017-Nov-16 21:29N 59°29' E 024°31'0 0.0
2017-Nov-16 20:59N 59°29' E 024°31'0 0.0
2017-Nov-16 20:29N 59°29' E 024°31'0 0.0
2017-Nov-16 19:59N 59°29' E 024°31'0 0.0
2017-Nov-16 19:29N 59°29' E 024°31'0 0.0
2017-Nov-16 18:59N 59°29' E 024°31'0 0.1
2017-Nov-16 18:29N 59°29' E 024°31'0 0.1
2017-Nov-16 17:59N 59°29' E 024°31'3 5.5
2017-Nov-16 17:30N 59°30' E 024°26'714.2
2017-Nov-16 17:00N 59°29' E 024°12'2014.2
2017-Nov-16 15:38N 59°27' E 023°33'414.4
2017-Nov-16 15:20N 59°27' E 023°25'31013.1
2017-Nov-15 15:43N 55°46' E 016°38'414.1
2017-Nov-15 15:25N 55°45' E 016°31'614.0
2017-Nov-15 15:00N 55°44' E 016°21'713.9
2017-Nov-15 14:30N 55°42' E 016°09'713.9
2017-Nov-15 14:00N 55°41' E 015°57'714.0
2017-Nov-15 13:30N 55°39' E 015°45'714.0
2017-Nov-15 13:00N 55°37' E 015°33'714.1
2017-Nov-15 12:30N 55°35' E 015°21'714.2
2017-Nov-15 12:01N 55°32' E 015°10'714.1
2017-Nov-15 11:30N 55°28' E 014°59'714.0
2017-Nov-15 11:00N 55°25' E 014°47'713.9
2017-Nov-15 10:30N 55°22' E 014°37'713.7
2017-Nov-15 10:00N 55°17' E 014°29'713.8
2017-Nov-15 09:31N 55°12' E 014°21'713.9
2017-Nov-15 08:59N 55°10' E 014°08'714.1
2017-Nov-15 08:28N 55°10' E 013°56'1514.3
2017-Nov-15 07:24N 55°13' E 013°29'614.3
2017-Nov-15 07:00N 55°13' E 013°19'814.2
2017-Nov-15 06:26N 55°14' E 013°05'614.3
2017-Nov-15 06:01N 55°15' E 012°55'713.9
2017-Nov-15 05:30N 55°17' E 012°43'611.1
2017-Nov-15 05:00N 55°22' E 012°39'713.7
2017-Nov-15 04:30N 55°29' E 012°41'5 9.9
2017-Nov-15 04:00N 55°33' E 012°42'4 7.8
2017-Nov-15 03:30N 55°37' E 012°42'612.1
2017-Nov-15 03:00N 55°43' E 012°41'713.3
2017-Nov-15 02:30N 55°50' E 012°42'713.0
2017-Nov-15 02:00N 55°56' E 012°39'713.2
2017-Nov-15 01:31N 56°03' E 012°39'713.3
2017-Nov-15 01:00N 56°07' E 012°30'611.2
2017-Nov-15 00:30N 56°11' E 012°22'7112.2
2017-Nov-14 18:39N 57°17' E 011°32'214.4
2017-Nov-14 18:30N 57°19' E 011°31'714.5
2017-Nov-14 18:00N 57°26' E 011°27'714.3
2017-Nov-14 17:30N 57°32' E 011°22'714.2
2017-Nov-14 17:00N 57°39' E 011°18'714.5
2017-Nov-14 16:30N 57°46' E 011°14'714.4
2017-Nov-14 16:01N 57°53' E 011°10'714.2
2017-Nov-14 15:30N 57°59' E 011°06'713.9
2017-Nov-14 14:58N 58°07' E 011°01'613.8
2017-Nov-14 14:30N 58°13' E 010°58'713.3
2017-Nov-14 14:00N 58°19' E 010°54'1212.8
2017-Nov-14 13:04N 58°30' E 010°47'112.9
2017-Nov-14 13:00N 58°31' E 010°47'612.9
2017-Nov-14 12:30N 58°37' E 010°43'612.8
2017-Nov-14 12:00N 58°43' E 010°39'612.6
2017-Nov-14 11:30N 58°49' E 010°35'713.2
2017-Nov-14 11:00N 58°56' E 010°36'713.2
2017-Nov-14 10:30N 59°03' E 010°35'510.5
2017-Nov-14 10:00N 59°08' E 010°36'713.3
2017-Nov-14 09:30N 59°14' E 010°37'611.8
2017-Nov-14 09:00N 59°20' E 010°31'0 0.6
2017-Nov-14 08:30N 59°20' E 010°31'0 0.0
2017-Nov-14 08:00N 59°20' E 010°31'0 0.0
2017-Nov-14 07:30N 59°20' E 010°31'0 0.0
2017-Nov-14 07:00N 59°20' E 010°31'0 0.0
2017-Nov-14 06:30N 59°20' E 010°31'0 0.0
2017-Nov-14 06:00N 59°20' E 010°31'0 0.0
2017-Nov-14 05:30N 59°20' E 010°31'0 0.0
2017-Nov-14 05:00N 59°20' E 010°31'0 0.0
2017-Nov-14 04:30N 59°20' E 010°31'0 0.0
2017-Nov-14 04:00N 59°20' E 010°31'0 0.0
2017-Nov-14 03:30N 59°20' E 010°31'0 0.0
2017-Nov-14 03:00N 59°20' E 010°31'0 0.0
2017-Nov-14 02:30N 59°20' E 010°31'0 0.0
2017-Nov-14 02:00N 59°20' E 010°31'0 0.0
2017-Nov-14 01:30N 59°20' E 010°31'0 0.0
2017-Nov-14 01:00N 59°20' E 010°31'0 0.0
2017-Nov-14 00:30N 59°20' E 010°31'0 0.0
2017-Nov-14 00:00N 59°20' E 010°31'0 0.0
2017-Nov-13 23:30N 59°20' E 010°31'0 0.0
2017-Nov-13 23:00N 59°20' E 010°31'0 0.0
2017-Nov-13 22:30N 59°20' E 010°31'0 0.0
2017-Nov-13 22:00N 59°20' E 010°31'1 0.0
2017-Nov-13 02:00N 59°20' E 010°31'0 0.0
2017-Nov-13 01:30N 59°20' E 010°31'0 0.0
2017-Nov-13 01:00N 59°20' E 010°31'0 0.0
2017-Nov-13 00:30N 59°20' E 010°31'0 0.0
2017-Nov-13 00:00N 59°20' E 010°31'0 0.0
2017-Nov-12 23:30N 59°20' E 010°31'0 0.0
2017-Nov-12 23:00N 59°20' E 010°31'0 0.0
2017-Nov-12 22:30N 59°20' E 010°31'0 0.0
2017-Nov-12 22:00N 59°20' E 010°31'0 0.0
2017-Nov-12 21:30N 59°20' E 010°31'0 0.0
2017-Nov-12 21:00N 59°20' E 010°31'0 0.0
2017-Nov-12 20:30N 59°20' E 010°31'0 0.0
2017-Nov-12 20:00N 59°20' E 010°31'0 0.0
2017-Nov-12 19:30N 59°20' E 010°31'0 0.0
2017-Nov-12 19:00N 59°20' E 010°31'0 0.0
2017-Nov-12 18:30N 59°20' E 010°31'0 0.0
2017-Nov-12 18:00N 59°20' E 010°31'0 0.0
2017-Nov-12 17:30N 59°20' E 010°31'0 0.0
2017-Nov-12 17:00N 59°20' E 010°31'0 0.0
2017-Nov-12 16:30N 59°20' E 010°31'0 0.0
2017-Nov-12 16:00N 59°20' E 010°31'0 0.0
2017-Nov-12 15:30N 59°20' E 010°31'0 0.0
2017-Nov-12 15:00N 59°20' E 010°31'0 0.0
2017-Nov-12 14:30N 59°20' E 010°31'0 0.0
2017-Nov-12 14:00N 59°20' E 010°31'0 0.0
2017-Nov-12 13:30N 59°20' E 010°31'0 0.0
2017-Nov-12 13:00N 59°20' E 010°31'0 0.0
2017-Nov-12 12:30N 59°20' E 010°31'0 0.0
2017-Nov-12 12:00N 59°20' E 010°31'0 0.0
2017-Nov-12 11:30N 59°20' E 010°31'0 0.0
2017-Nov-12 11:00N 59°20' E 010°31'0 0.0
2017-Nov-12 10:30N 59°20' E 010°31'0 0.0
2017-Nov-12 10:00N 59°20' E 010°31'0 0.0
2017-Nov-12 09:30N 59°20' E 010°31'0 0.0
2017-Nov-12 09:00N 59°20' E 010°31'0 0.0
2017-Nov-12 08:30N 59°20' E 010°31'0 0.0
2017-Nov-12 08:00N 59°20' E 010°31'0 0.0
2017-Nov-12 07:30N 59°20' E 010°31'0 0.0
2017-Nov-12 07:00N 59°20' E 010°31'0 0.0
2017-Nov-12 06:30N 59°20' E 010°31'0 0.0
2017-Nov-12 06:00N 59°20' E 010°31'0 0.0
2017-Nov-12 05:30N 59°20' E 010°31'0 0.0
2017-Nov-12 05:00N 59°20' E 010°31'0 0.0
2017-Nov-12 04:30N 59°20' E 010°31'0 0.0
2017-Nov-12 04:00N 59°20' E 010°31'0 0.0
2017-Nov-12 03:30N 59°20' E 010°31'0 0.0
2017-Nov-12 03:00N 59°20' E 010°31'0 0.0
2017-Nov-12 02:30N 59°20' E 010°31'0 0.0
2017-Nov-12 02:00N 59°20' E 010°31'0 0.0
2017-Nov-12 01:30N 59°20' E 010°31'0 0.0
2017-Nov-12 01:00N 59°20' E 010°31'0 0.0
2017-Nov-12 00:30N 59°20' E 010°31'0 0.0
2017-Nov-12 00:00N 59°20' E 010°31'0 0.0
2017-Nov-11 23:30N 59°20' E 010°31'0 0.0
2017-Nov-11 23:00N 59°20' E 010°31'0 0.0
2017-Nov-11 22:30N 59°20' E 010°31'0 0.0
2017-Nov-11 22:00N 59°20' E 010°31'0 0.0
2017-Nov-11 21:30N 59°20' E 010°31'0 0.0
2017-Nov-11 21:00N 59°20' E 010°31'0 0.0
2017-Nov-11 20:30N 59°20' E 010°31'0 0.0
2017-Nov-11 20:00N 59°20' E 010°31'0 0.0
2017-Nov-11 19:30N 59°20' E 010°31'0 0.0
2017-Nov-11 19:00N 59°20' E 010°31'0 0.0
2017-Nov-11 18:30N 59°20' E 010°31'0 0.0
2017-Nov-11 18:00N 59°20' E 010°31'0 0.0
2017-Nov-11 17:30N 59°20' E 010°31'0 0.0
2017-Nov-11 17:00N 59°20' E 010°31'0 0.0
2017-Nov-11 16:30N 59°20' E 010°31'0 0.1
2017-Nov-11 16:00N 59°20' E 010°31'0 0.0
2017-Nov-11 15:30N 59°20' E 010°31'0 0.0
2017-Nov-11 15:00N 59°20' E 010°31'0 0.0
2017-Nov-11 14:30N 59°20' E 010°31'0 0.0
2017-Nov-11 14:00N 59°20' E 010°31'0 0.0
2017-Nov-11 13:30N 59°20' E 010°31'0 0.0
2017-Nov-11 13:00N 59°20' E 010°31'0 0.0
2017-Nov-11 12:30N 59°20' E 010°31'0 0.0
2017-Nov-11 12:00N 59°20' E 010°31'0 0.0
2017-Nov-11 11:30N 59°20' E 010°31'0 0.0
2017-Nov-11 11:00N 59°20' E 010°31'0 0.0
2017-Nov-11 10:30N 59°20' E 010°31'0 0.0
2017-Nov-11 10:00N 59°20' E 010°31'0 0.0
2017-Nov-11 09:30N 59°20' E 010°31'0 0.0
2017-Nov-11 09:00N 59°20' E 010°31'0 0.0
2017-Nov-11 08:30N 59°20' E 010°31'0 0.0
2017-Nov-11 08:00N 59°20' E 010°31'0 0.0
2017-Nov-11 07:30N 59°20' E 010°31'0 0.0
2017-Nov-11 07:00N 59°20' E 010°31'0 0.1
2017-Nov-11 06:30N 59°20' E 010°31'0 0.1
2017-Nov-11 06:00N 59°20' E 010°31'0 0.0
2017-Nov-11 05:30N 59°20' E 010°31'0 0.0
2017-Nov-11 05:00N 59°20' E 010°31'0 0.0
2017-Nov-11 04:30N 59°20' E 010°31'0 0.0
2017-Nov-11 04:00N 59°20' E 010°31'0 0.0
2017-Nov-11 03:30N 59°20' E 010°31'0 0.0
2017-Nov-11 03:00N 59°20' E 010°31'0 0.0
2017-Nov-11 02:30N 59°20' E 010°31'0 0.0
2017-Nov-11 02:00N 59°20' E 010°31'0 0.0
2017-Nov-11 01:30N 59°20' E 010°31'0 0.0
2017-Nov-11 01:00N 59°20' E 010°31'0 0.0
2017-Nov-11 00:30N 59°20' E 010°31'0 0.0
2017-Nov-11 00:00N 59°20' E 010°31'0 0.0
2017-Nov-10 23:30N 59°20' E 010°31'0 0.0
2017-Nov-10 23:00N 59°20' E 010°31'0 0.0
2017-Nov-10 22:30N 59°20' E 010°31'0 0.0
2017-Nov-10 22:00N 59°20' E 010°31'0 0.0
2017-Nov-10 21:30N 59°20' E 010°31'0 0.0
2017-Nov-10 21:00N 59°20' E 010°31'0 0.0
2017-Nov-10 20:30N 59°20' E 010°31'0 0.0
2017-Nov-10 20:00N 59°20' E 010°31'0 0.0
2017-Nov-10 19:30N 59°20' E 010°31'0 0.0
2017-Nov-10 19:00N 59°20' E 010°31'0 0.0
2017-Nov-10 18:30N 59°20' E 010°31'0 0.0
2017-Nov-10 18:00N 59°20' E 010°31'0 0.0
2017-Nov-10 17:30N 59°20' E 010°31'0 0.0
2017-Nov-10 17:00N 59°20' E 010°31'0 0.0
2017-Nov-10 16:30N 59°20' E 010°31'0 0.0
2017-Nov-10 16:00N 59°20' E 010°31'0 0.0
2017-Nov-10 15:30N 59°20' E 010°31'0 0.0
2017-Nov-10 15:00N 59°20' E 010°31'0 0.0
2017-Nov-10 14:30N 59°20' E 010°31'0 0.0
2017-Nov-10 14:00N 59°20' E 010°31'0 0.0
2017-Nov-10 13:30N 59°20' E 010°31'0 0.0
2017-Nov-10 13:00N 59°20' E 010°31'0 0.0
2017-Nov-10 12:30N 59°20' E 010°31'0 0.0
2017-Nov-10 12:00N 59°20' E 010°31'0 0.0
2017-Nov-10 11:30N 59°20' E 010°31'0 0.0
2017-Nov-10 11:00N 59°20' E 010°31'0 0.0
2017-Nov-10 10:30N 59°20' E 010°31'0 0.0
2017-Nov-10 10:00N 59°20' E 010°31'0 0.0
2017-Nov-10 09:30N 59°20' E 010°31'0 0.0
2017-Nov-10 09:00N 59°20' E 010°31'0 0.0
2017-Nov-10 08:30N 59°20' E 010°31'0 0.0
2017-Nov-10 08:00N 59°20' E 010°31'0 0.0
2017-Nov-10 07:30N 59°20' E 010°31'0 0.1
2017-Nov-10 07:00N 59°20' E 010°31'0 0.1
2017-Nov-10 06:30N 59°20' E 010°31'0 0.0
2017-Nov-10 06:00N 59°20' E 010°31'0 0.1
2017-Nov-10 05:30N 59°20' E 010°31'0 0.0
2017-Nov-10 05:00N 59°20' E 010°31'0 0.0
2017-Nov-10 04:30N 59°20' E 010°31'0 0.0
2017-Nov-10 04:00N 59°20' E 010°31'0 0.0
2017-Nov-10 03:30N 59°20' E 010°31'0 0.0
2017-Nov-10 03:00N 59°20' E 010°31'0 0.0
2017-Nov-10 02:30N 59°20' E 010°31'0 0.1
2017-Nov-10 02:00N 59°20' E 010°31'0 0.0
2017-Nov-10 01:30N 59°20' E 010°31'0 0.0
2017-Nov-10 01:00N 59°20' E 010°31'0 0.0
2017-Nov-10 00:30N 59°20' E 010°31'0 0.0
2017-Nov-10 00:00N 59°20' E 010°31'0 0.0
2017-Nov-09 23:30N 59°20' E 010°31'0 0.1
2017-Nov-09 23:00N 59°20' E 010°31'0 0.0
2017-Nov-09 22:30N 59°20' E 010°31'0 0.0
2017-Nov-09 22:00N 59°20' E 010°31'0 0.0
2017-Nov-09 21:30N 59°20' E 010°31'0 0.0
2017-Nov-09 21:00N 59°20' E 010°31'0 0.0
2017-Nov-09 20:30N 59°20' E 010°31'0 0.0
2017-Nov-09 20:00N 59°20' E 010°31'0 0.0
2017-Nov-09 19:30N 59°20' E 010°31'0 0.0
2017-Nov-09 19:00N 59°20' E 010°31'0 0.0
2017-Nov-09 18:30N 59°20' E 010°31'0 0.1
2017-Nov-09 18:00N 59°20' E 010°31'0 0.0
2017-Nov-09 17:30N 59°20' E 010°31'0 0.0
2017-Nov-09 17:00N 59°20' E 010°31'0 0.0
2017-Nov-09 16:30N 59°20' E 010°31'0 0.0
2017-Nov-09 16:00N 59°20' E 010°31'0 0.0
2017-Nov-09 15:30N 59°20' E 010°31'0 0.0
2017-Nov-09 15:00N 59°20' E 010°31'0 0.0
2017-Nov-09 14:30N 59°20' E 010°31'0 0.0
2017-Nov-09 14:00N 59°20' E 010°31'0 0.0
2017-Nov-09 13:30N 59°20' E 010°31'0 0.0
2017-Nov-09 13:00N 59°20' E 010°31'0 0.0
2017-Nov-09 12:30N 59°20' E 010°31'0 0.0
2017-Nov-09 12:00N 59°20' E 010°31'0 0.1
2017-Nov-09 11:30N 59°20' E 010°31'0 0.0
2017-Nov-09 11:00N 59°20' E 010°31'0 0.1
2017-Nov-09 10:30N 59°20' E 010°31'0 0.0
2017-Nov-09 10:00N 59°20' E 010°31'0 0.0
2017-Nov-09 09:30N 59°20' E 010°31'0 0.0
2017-Nov-09 09:00N 59°20' E 010°31'0 0.0
2017-Nov-09 08:30N 59°20' E 010°31'0 0.0
2017-Nov-09 08:00N 59°20' E 010°31'0 0.0
2017-Nov-09 07:30N 59°20' E 010°31'0 0.0
2017-Nov-09 07:00N 59°20' E 010°31'0 0.0
2017-Nov-09 06:30N 59°20' E 010°31'0 0.0
2017-Nov-09 06:00N 59°20' E 010°31'0 0.0
2017-Nov-09 05:30N 59°20' E 010°31'0 0.0
2017-Nov-09 05:00N 59°20' E 010°31'0 0.0
2017-Nov-09 04:30N 59°20' E 010°31'0 0.0
2017-Nov-09 04:00N 59°20' E 010°31'0 0.0
2017-Nov-09 03:30N 59°20' E 010°31'0 0.0
2017-Nov-09 03:00N 59°20' E 010°31'0 0.0
2017-Nov-09 02:30N 59°20' E 010°31'0 0.0
2017-Nov-09 02:00N 59°20' E 010°31'0 0.0
2017-Nov-09 01:30N 59°20' E 010°31'0 0.0
2017-Nov-09 01:00N 59°20' E 010°31'0 0.0
2017-Nov-09 00:30N 59°20' E 010°31'0 0.0
2017-Nov-09 00:00N 59°20' E 010°31'0 0.0
2017-Nov-08 23:30N 59°20' E 010°31'0 0.0
2017-Nov-08 23:00N 59°20' E 010°31'0 0.0
2017-Nov-08 22:30N 59°20' E 010°31'0 0.0
2017-Nov-08 22:00N 59°20' E 010°31'0 0.0
2017-Nov-08 21:30N 59°20' E 010°31'0 0.1
2017-Nov-08 21:00N 59°20' E 010°31'0 0.0
2017-Nov-08 20:30N 59°20' E 010°31'0 0.0
2017-Nov-08 20:00N 59°20' E 010°31'0 0.0
2017-Nov-08 19:30N 59°20' E 010°31'0 0.0
2017-Nov-08 19:00N 59°20' E 010°31'0 0.0
2017-Nov-08 18:30N 59°20' E 010°31'0 0.0
2017-Nov-08 18:00N 59°20' E 010°31'0 0.0
2017-Nov-08 17:30N 59°20' E 010°31'0 0.0
2017-Nov-08 17:00N 59°20' E 010°31'0 0.0
2017-Nov-08 16:30N 59°20' E 010°31'0 0.0
2017-Nov-08 16:00N 59°20' E 010°31'0 0.0
2017-Nov-08 15:30N 59°20' E 010°31'0 0.0
2017-Nov-08 15:00N 59°20' E 010°31'0 0.0
2017-Nov-08 14:30N 59°20' E 010°31'0 0.0
2017-Nov-08 14:00N 59°20' E 010°31'0 0.0
2017-Nov-08 13:30N 59°20' E 010°31'0 0.0
2017-Nov-08 13:00N 59°20' E 010°31'0 0.1
2017-Nov-08 12:30N 59°20' E 010°31'0 0.0
2017-Nov-08 12:00N 59°20' E 010°31'0 0.0
2017-Nov-08 11:30N 59°20' E 010°31'0 0.0
2017-Nov-08 11:00N 59°20' E 010°31'0 0.0
2017-Nov-08 10:30N 59°20' E 010°31'0 0.0
2017-Nov-08 10:00N 59°20' E 010°31'0 0.0
2017-Nov-08 09:30N 59°20' E 010°31'0 0.0
2017-Nov-08 09:00N 59°20' E 010°31'0 0.0
2017-Nov-08 08:30N 59°20' E 010°31'0 0.0
2017-Nov-08 08:00N 59°20' E 010°31'0 0.0
2017-Nov-08 07:30N 59°20' E 010°31'0 0.0
2017-Nov-08 07:00N 59°20' E 010°31'0 0.0
2017-Nov-08 06:30N 59°20' E 010°31'0 0.0
2017-Nov-08 06:00N 59°20' E 010°31'0 0.0
2017-Nov-08 05:30N 59°20' E 010°31'0 0.1
2017-Nov-08 05:00N 59°20' E 010°31'0 0.1
2017-Nov-08 04:30N 59°20' E 010°31'0 0.0
2017-Nov-08 04:00N 59°20' E 010°31'0 0.0
2017-Nov-08 03:30N 59°20' E 010°31'0 0.0
2017-Nov-08 03:00N 59°20' E 010°31'0 0.0
2017-Nov-08 02:30N 59°20' E 010°31'0 0.0
2017-Nov-08 02:00N 59°20' E 010°31'0 0.0
2017-Nov-08 01:30N 59°20' E 010°31'0 0.0
2017-Nov-08 01:00N 59°20' E 010°31'0 0.0
2017-Nov-08 00:30N 59°20' E 010°31'0 0.0
2017-Nov-08 00:00N 59°20' E 010°31'0 0.0
2017-Nov-07 23:30N 59°20' E 010°31'0 0.0
2017-Nov-07 23:00N 59°20' E 010°31'0 0.0
2017-Nov-07 22:30N 59°20' E 010°31'0 0.0
2017-Nov-07 22:00N 59°20' E 010°31'0 0.0
2017-Nov-07 21:30N 59°20' E 010°31'0 0.1
2017-Nov-07 21:00N 59°20' E 010°31'0 0.1
2017-Nov-07 20:30N 59°20' E 010°31'0 0.1
2017-Nov-07 20:00N 59°20' E 010°31'0 0.0
2017-Nov-07 19:30N 59°20' E 010°31'0 0.0
2017-Nov-07 19:00N 59°20' E 010°31'0 0.1
2017-Nov-07 18:30N 59°20' E 010°31'0 0.1
2017-Nov-07 18:00N 59°20' E 010°31'0 0.0
2017-Nov-07 17:30N 59°20' E 010°31'0 0.0
2017-Nov-07 17:00N 59°20' E 010°31'0 0.1
2017-Nov-07 16:30N 59°20' E 010°31'0 0.1
2017-Nov-07 16:00N 59°20' E 010°31'0 0.0
2017-Nov-07 15:30N 59°20' E 010°31'0 0.0
2017-Nov-07 15:00N 59°20' E 010°31'0 0.0
2017-Nov-07 14:30N 59°20' E 010°31'0 0.0
2017-Nov-07 14:00N 59°20' E 010°31'0 0.0
2017-Nov-07 13:30N 59°20' E 010°31'0 0.0
2017-Nov-07 13:00N 59°20' E 010°31'0 0.0
2017-Nov-07 12:30N 59°20' E 010°31'0 0.0
2017-Nov-07 12:00N 59°20' E 010°31'0 0.0
2017-Nov-07 11:30N 59°20' E 010°31'0 0.0
2017-Nov-07 11:00N 59°20' E 010°31'0 0.0
2017-Nov-07 10:30N 59°20' E 010°31'0 0.1
2017-Nov-07 10:00N 59°20' E 010°31'0 0.0
2017-Nov-07 09:30N 59°20' E 010°31'  

Dump ship's entire track history